Bundaberg Aerodrome, Australia
Current Conditions -  °F | °C
As of 4:00 AM on Saturday 29 Nov 2014 (Local Time) from YBUD Reporting Station
Scattered Clouds Scattered Clouds  
Wind Chill: 70°   Ceiling: Unl
Heat Index: 70°   Visibility: 6mi
Dew Point: 66°   Wind: 8mph
Humidity: 88%   Direction: 170°S
Pressure: 29.97"   Gusts: NA
Location:  24.9°S, 152.32°E
Report Text: YBUD 281800Z AUTO 17007KT 9999 // SCT027 SCT036 SCT043 21/19 Q1015
Loading
Personal Weather Stations






























Interactive Weather Map New forecast layout! Learn more

10-Day Weather Forecast

Advertisements
Track Severe Weather on mobile